sensor_id;sensor_type;location;lat;lon;timestamp;pressure;altitude;pressure_sealevel;temperature;humidity
71465;BME280;59274;49.874;9.154;2022-07-06T00:00:53;100881.59;;;18.50;49.03
71465;BME280;59274;49.874;9.154;2022-07-06T00:03:18;100888.34;;;18.42;48.41
71465;BME280;59274;49.874;9.154;2022-07-06T00:05:44;100886.44;;;18.35;49.00
71465;BME280;59274;49.874;9.154;2022-07-06T00:08:09;100887.69;;;18.30;49.50
71465;BME280;59274;49.874;9.154;2022-07-06T00:10:35;100898.31;;;18.28;49.14
71465;BME280;59274;49.874;9.154;2022-07-06T00:13:00;100897.53;;;18.28;49.14
71465;BME280;59274;49.874;9.154;2022-07-06T00:15:26;100905.44;;;18.22;49.11
71465;BME280;59274;49.874;9.154;2022-07-06T00:17:51;100899.94;;;18.22;49.10
71465;BME280;59274;49.874;9.154;2022-07-06T00:20:17;100901.53;;;18.20;49.96
71465;BME280;59274;49.874;9.154;2022-07-06T00:22:42;100900.75;;;18.19;50.16
71465;BME280;59274;49.874;9.154;2022-07-06T00:25:08;100902.75;;;18.19;49.69
71465;BME280;59274;49.874;9.154;2022-07-06T00:27:34;100905.50;;;18.15;50.03
71465;BME280;59274;49.874;9.154;2022-07-06T00:29:59;100917.28;;;18.16;49.89
71465;BME280;59274;49.874;9.154;2022-07-06T00:32:25;100908.66;;;18.14;50.05
71465;BME280;59274;49.874;9.154;2022-07-06T00:34:52;100910.28;;;18.11;50.59
71465;BME280;59274;49.874;9.154;2022-07-06T00:37:18;100915.78;;;18.08;50.55
71465;BME280;59274;49.874;9.154;2022-07-06T00:39:43;100906.03;;;18.03;51.03
71465;BME280;59274;49.874;9.154;2022-07-06T00:42:09;100905.66;;;18.01;51.41
71465;BME280;59274;49.874;9.154;2022-07-06T00:44:34;100906.09;;;17.96;51.58
71465;BME280;59274;49.874;9.154;2022-07-06T00:47:00;100902.56;;;17.92;52.08
71465;BME280;59274;49.874;9.154;2022-07-06T00:49:25;100912.81;;;17.88;52.40
71465;BME280;59274;49.874;9.154;2022-07-06T00:52:10;100910.09;;;17.84;52.78
71465;BME280;59274;49.874;9.154;2022-07-06T00:54:36;100914.44;;;17.82;52.58
71465;BME280;59274;49.874;9.154;2022-07-06T00:57:02;100909.78;;;17.75;52.85
71465;BME280;59274;49.874;9.154;2022-07-06T00:59:28;100907.47;;;17.70;52.74
71465;BME280;59274;49.874;9.154;2022-07-06T01:01:53;100909.84;;;17.65;52.63
71465;BME280;59274;49.874;9.154;2022-07-06T01:04:19;100911.03;;;17.64;52.83
71465;BME280;59274;49.874;9.154;2022-07-06T01:06:45;100899.28;;;17.56;52.66
71465;BME280;59274;49.874;9.154;2022-07-06T01:09:12;100899.34;;;17.52;52.29
71465;BME280;59274;49.874;9.154;2022-07-06T01:11:38;100907.19;;;17.50;52.63
71465;BME280;59274;49.874;9.154;2022-07-06T01:14:03;100910.38;;;17.45;53.09
71465;BME280;59274;49.874;9.154;2022-07-06T01:16:30;100904.09;;;17.45;52.79
71465;BME280;59274;49.874;9.154;2022-07-06T01:18:55;100900.22;;;17.35;53.65
71465;BME280;59274;49.874;9.154;2022-07-06T01:21:21;100899.13;;;17.22;55.36
71465;BME280;59274;49.874;9.154;2022-07-06T01:23:47;100906.69;;;17.00;58.34
71465;BME280;59274;49.874;9.154;2022-07-06T01:26:16;100902.78;;;16.98;58.45
71465;BME280;59274;49.874;9.154;2022-07-06T01:28:50;100906.81;;;16.68;59.96
71465;BME280;59274;49.874;9.154;2022-07-06T01:31:24;100908.00;;;16.67;59.89
71465;BME280;59274;49.874;9.154;2022-07-06T01:33:51;100906.41;;;16.56;59.03
71465;BME280;59274;49.874;9.154;2022-07-06T01:36:17;100906.84;;;16.47;57.88
71465;BME280;59274;49.874;9.154;2022-07-06T01:38:53;100912.31;;;16.51;57.04
71465;BME280;59274;49.874;9.154;2022-07-06T01:41:20;100915.84;;;16.55;56.22
71465;BME280;59274;49.874;9.154;2022-07-06T01:43:46;100910.38;;;16.62;55.88
71465;BME280;59274;49.874;9.154;2022-07-06T01:46:13;100914.66;;;16.63;56.21
71465;BME280;59274;49.874;9.154;2022-07-06T01:48:38;100909.94;;;16.70;56.66
71465;BME280;59274;49.874;9.154;2022-07-06T01:51:04;100907.59;;;16.69;56.50
71465;BME280;59274;49.874;9.154;2022-07-06T01:53:30;100907.97;;;16.71;56.06
71465;BME280;59274;49.874;9.154;2022-07-06T01:55:56;100909.56;;;16.68;56.04
71465;BME280;59274;49.874;9.154;2022-07-06T01:58:21;100909.56;;;16.68;56.16
71465;BME280;59274;49.874;9.154;2022-07-06T02:00:47;100913.50;;;16.60;56.35
71465;BME280;59274;49.874;9.154;2022-07-06T02:03:13;100922.88;;;16.59;56.83
71465;BME280;59274;49.874;9.154;2022-07-06T02:05:38;100919.00;;;16.60;57.37
71465;BME280;59274;49.874;9.154;2022-07-06T02:08:04;100920.94;;;16.45;58.79
71465;BME280;59274;49.874;9.154;2022-07-06T02:10:29;100927.28;;;16.11;61.60
71465;BME280;59274;49.874;9.154;2022-07-06T02:12:55;100924.91;;;15.88;62.34
71465;BME280;59274;49.874;9.154;2022-07-06T02:15:20;100926.88;;;15.62;62.48
71465;BME280;59274;49.874;9.154;2022-07-06T02:17:46;100929.97;;;15.57;62.55
71465;BME280;59274;49.874;9.154;2022-07-06T02:20:11;100921.31;;;15.41;62.78
71465;BME280;59274;49.874;9.154;2022-07-06T02:22:37;100924.44;;;15.40;62.58
71465;BME280;59274;49.874;9.154;2022-07-06T02:25:03;100925.19;;;15.29;63.66
71465;BME280;59274;49.874;9.154;2022-07-06T02:27:29;100919.72;;;15.26;64.94
71465;BME280;59274;49.874;9.154;2022-07-06T02:29:54;100925.97;;;15.23;64.38
71465;BME280;59274;49.874;9.154;2022-07-06T02:32:20;100932.97;;;15.17;64.80
71465;BME280;59274;49.874;9.154;2022-07-06T02:34:45;100927.47;;;15.10;65.01
71465;BME280;59274;49.874;9.154;2022-07-06T02:37:11;100934.91;;;15.06;64.92
71465;BME280;59274;49.874;9.154;2022-07-06T02:39:36;100931.81;;;15.18;64.35
71465;BME280;59274;49.874;9.154;2022-07-06T02:42:02;100935.75;;;15.35;64.02
71465;BME280;59274;49.874;9.154;2022-07-06T02:44:27;100931.09;;;15.49;63.41
71465;BME280;59274;49.874;9.154;2022-07-06T02:46:53;100931.16;;;15.67;61.21
71465;BME280;59274;49.874;9.154;2022-07-06T02:49:18;100937.06;;;15.76;61.45
71465;BME280;59274;49.874;9.154;2022-07-06T02:51:44;100942.53;;;15.87;60.22
71465;BME280;59274;49.874;9.154;2022-07-06T02:54:09;100944.13;;;15.91;60.18
71465;BME280;59274;49.874;9.154;2022-07-06T02:56:34;100944.88;;;15.95;60.40
71465;BME280;59274;49.874;9.154;2022-07-06T02:59:00;100947.22;;;16.00;59.89
71465;BME280;59274;49.874;9.154;2022-07-06T03:01:25;100946.84;;;16.02;59.66
71465;BME280;59274;49.874;9.154;2022-07-06T03:03:51;100942.53;;;16.08;60.74
71465;BME280;59274;49.874;9.154;2022-07-06T03:06:17;100949.97;;;16.08;59.52
71465;BME280;59274;49.874;9.154;2022-07-06T03:08:42;100953.09;;;16.10;59.86
71465;BME280;59274;49.874;9.154;2022-07-06T03:11:07;100949.59;;;16.05;59.69
71465;BME280;59274;49.874;9.154;2022-07-06T03:13:34;100948.78;;;16.01;60.29
71465;BME280;59274;49.874;9.154;2022-07-06T03:16:00;100957.00;;;15.94;61.42
71465;BME280;59274;49.874;9.154;2022-07-06T03:18:25;100958.19;;;15.86;61.70
71465;BME280;59274;49.874;9.154;2022-07-06T03:20:50;100961.31;;;15.74;62.61
71465;BME280;59274;49.874;9.154;2022-07-06T03:23:16;100960.88;;;15.58;63.46
71465;BME280;59274;49.874;9.154;2022-07-06T03:25:42;100965.13;;;15.52;64.25
71465;BME280;59274;49.874;9.154;2022-07-06T03:28:07;100962.38;;;15.34;64.77
71465;BME280;59274;49.874;9.154;2022-07-06T03:30:33;100957.59;;;15.20;65.24
71465;BME280;59274;49.874;9.154;2022-07-06T03:32:58;100963.00;;;15.03;65.69
71465;BME280;59274;49.874;9.154;2022-07-06T03:35:24;100966.50;;;15.00;66.48
71465;BME280;59274;49.874;9.154;2022-07-06T03:37:49;100975.84;;;14.88;67.21
71465;BME280;59274;49.874;9.154;2022-07-06T03:40:14;100969.50;;;14.73;67.39
71465;BME280;59274;49.874;9.154;2022-07-06T03:42:40;100972.88;;;14.49;68.59
71465;BME280;59274;49.874;9.154;2022-07-06T03:45:06;100971.28;;;14.44;69.12
71465;BME280;59274;49.874;9.154;2022-07-06T03:47:32;100963.44;;;14.43;68.76
71465;BME280;59274;49.874;9.154;2022-07-06T03:49:57;100971.16;;;14.30;69.92
71465;BME280;59274;49.874;9.154;2022-07-06T03:52:22;100970.41;;;14.33;70.24
71465;BME280;59274;49.874;9.154;2022-07-06T03:54:48;100973.06;;;14.26;70.42
71465;BME280;59274;49.874;9.154;2022-07-06T03:57:13;100974.66;;;14.31;70.56
71465;BME280;59274;49.874;9.154;2022-07-06T03:59:39;100969.25;;;14.34;70.34
71465;BME280;59274;49.874;9.154;2022-07-06T04:02:05;100979.34;;;14.30;70.75
71465;BME280;59274;49.874;9.154;2022-07-06T04:04:31;100980.13;;;14.31;71.12
71465;BME280;59274;49.874;9.154;2022-07-06T04:06:58;100983.16;;;14.19;71.47
71465;BME280;59274;49.874;9.154;2022-07-06T04:09:23;100986.69;;;14.19;71.87
71465;BME280;59274;49.874;9.154;2022-07-06T04:11:49;100982.69;;;14.09;71.79
71465;BME280;59274;49.874;9.154;2022-07-06T04:14:14;100982.28;;;14.07;72.01
71465;BME280;59274;49.874;9.154;2022-07-06T04:16:40;100980.38;;;14.15;71.50
71465;BME280;59274;49.874;9.154;2022-07-06T04:19:05;100988.66;;;14.22;71.46
71465;BME280;59274;49.874;9.154;2022-07-06T04:21:31;100989.91;;;14.32;71.34
71465;BME280;59274;49.874;9.154;2022-07-06T04:23:56;100992.28;;;14.37;70.93
71465;BME280;59274;49.874;9.154;2022-07-06T04:26:21;101002.13;;;14.45;70.32
71465;BME280;59274;49.874;9.154;2022-07-06T04:28:47;101006.50;;;14.53;70.10
71465;BME280;59274;49.874;9.154;2022-07-06T04:31:13;100999.16;;;14.68;69.20
71465;BME280;59274;49.874;9.154;2022-07-06T04:33:41;101002.44;;;14.95;67.46
71465;BME280;59274;49.874;9.154;2022-07-06T04:36:08;101008.06;;;15.23;66.25
71465;BME280;59274;49.874;9.154;2022-07-06T04:38:34;101009.31;;;15.43;64.81
71465;BME280;59274;49.874;9.154;2022-07-06T04:41:00;101002.75;;;15.62;64.47
71465;BME280;59274;49.874;9.154;2022-07-06T04:43:25;101006.69;;;15.75;64.35
71465;BME280;59274;49.874;9.154;2022-07-06T04:45:51;101019.63;;;15.82;63.26
71465;BME280;59274;49.874;9.154;2022-07-06T04:48:16;101018.09;;;15.91;63.87
71465;BME280;59274;49.874;9.154;2022-07-06T04:50:42;101024.34;;;16.02;63.19
71465;BME280;59274;49.874;9.154;2022-07-06T04:53:07;101023.97;;;16.11;62.32
71465;BME280;59274;49.874;9.154;2022-07-06T04:55:33;101023.16;;;16.07;62.41
71465;BME280;59274;49.874;9.154;2022-07-06T04:57:58;101025.53;;;15.98;62.59
71465;BME280;59274;49.874;9.154;2022-07-06T05:00:24;101021.19;;;15.93;63.02
71465;BME280;59274;49.874;9.154;2022-07-06T05:02:49;101034.13;;;15.96;63.02
71465;BME280;59274;49.874;9.154;2022-07-06T05:05:15;101025.13;;;16.06;62.92
71465;BME280;59274;49.874;9.154;2022-07-06T05:07:40;101029.84;;;16.02;62.84
71465;BME280;59274;49.874;9.154;2022-07-06T05:10:07;101031.00;;;16.01;62.80
71465;BME280;59274;49.874;9.154;2022-07-06T05:12:33;101032.56;;;16.02;62.87
71465;BME280;59274;49.874;9.154;2022-07-06T05:14:59;101043.13;;;16.08;62.80
71465;BME280;59274;49.874;9.154;2022-07-06T05:17:25;101036.50;;;16.05;62.60
71465;BME280;59274;49.874;9.154;2022-07-06T05:19:50;101038.41;;;15.87;63.08
71465;BME280;59274;49.874;9.154;2022-07-06T05:22:16;101038.03;;;15.92;63.68
71465;BME280;59274;49.874;9.154;2022-07-06T05:24:41;101037.25;;;15.88;63.17
71465;BME280;59274;49.874;9.154;2022-07-06T05:27:07;101039.63;;;15.96;63.56
71465;BME280;59274;49.874;9.154;2022-07-06T05:29:32;101047.44;;;16.01;63.00
71465;BME280;59274;49.874;9.154;2022-07-06T05:31:58;101049.00;;;15.99;63.96
71465;BME280;59274;49.874;9.154;2022-07-06T05:34:23;101051.00;;;16.13;63.15
71465;BME280;59274;49.874;9.154;2022-07-06T05:36:48;101046.69;;;16.22;63.08
71465;BME280;59274;49.874;9.154;2022-07-06T05:39:14;101045.91;;;16.25;62.23
71465;BME280;59274;49.874;9.154;2022-07-06T05:41:44;101049.00;;;16.13;62.84
71465;BME280;59274;49.874;9.154;2022-07-06T05:44:09;101056.50;;;16.20;63.05
71465;BME280;59274;49.874;9.154;2022-07-06T05:46:35;101057.66;;;16.19;62.49
71465;BME280;59274;49.874;9.154;2022-07-06T05:49:00;101052.94;;;16.16;62.84
71465;BME280;59274;49.874;9.154;2022-07-06T05:51:44;101054.53;;;16.31;62.80
71465;BME280;59274;49.874;9.154;2022-07-06T05:54:10;101056.50;;;16.34;62.33
71465;BME280;59274;49.874;9.154;2022-07-06T05:56:35;101056.09;;;16.42;62.05
71465;BME280;59274;49.874;9.154;2022-07-06T05:59:01;101053.75;;;16.59;61.68
71465;BME280;59274;49.874;9.154;2022-07-06T06:01:26;101057.66;;;16.54;61.40
71465;BME280;59274;49.874;9.154;2022-07-06T06:03:51;101061.59;;;16.32;62.34
71465;BME280;59274;49.874;9.154;2022-07-06T06:06:17;101058.44;;;16.44;61.99
71465;BME280;59274;49.874;9.154;2022-07-06T06:08:42;101061.97;;;16.52;61.78
71465;BME280;59274;49.874;9.154;2022-07-06T06:11:08;101057.69;;;16.68;61.33
71465;BME280;59274;49.874;9.154;2022-07-06T06:13:33;101064.31;;;16.89;60.66
71465;BME280;59274;49.874;9.154;2022-07-06T06:15:59;101058.44;;;16.87;60.07
71465;BME280;59274;49.874;9.154;2022-07-06T06:18:24;101058.44;;;16.94;59.62
71465;BME280;59274;49.874;9.154;2022-07-06T06:20:50;101059.97;;;17.05;59.11
71465;BME280;59274;49.874;9.154;2022-07-06T06:23:15;101063.50;;;16.99;59.32
71465;BME280;59274;49.874;9.154;2022-07-06T06:25:41;101056.88;;;16.89;59.22
71465;BME280;59274;49.874;9.154;2022-07-06T06:28:08;101058.06;;;16.81;58.98
71465;BME280;59274;49.874;9.154;2022-07-06T06:30:34;101070.22;;;16.91;58.99
71465;BME280;59274;49.874;9.154;2022-07-06T06:33:17;101066.69;;;16.90;58.61
71465;BME280;59274;49.874;9.154;2022-07-06T06:35:50;101069.78;;;17.03;58.67
71465;BME280;59274;49.874;9.154;2022-07-06T06:38:17;101060.72;;;17.13;58.06
71465;BME280;59274;49.874;9.154;2022-07-06T06:40:43;101065.84;;;17.11;58.17
71465;BME280;59274;49.874;9.154;2022-07-06T06:43:09;101073.69;;;17.05;57.93
71465;BME280;59274;49.874;9.154;2022-07-06T06:45:34;101072.13;;;17.08;57.37
71465;BME280;59274;49.874;9.154;2022-07-06T06:48:00;101068.56;;;17.21;56.92
71465;BME280;59274;49.874;9.154;2022-07-06T06:50:26;101069.28;;;17.36;56.59
71465;BME280;59274;49.874;9.154;2022-07-06T06:52:52;101066.19;;;17.27;56.58
71465;BME280;59274;49.874;9.154;2022-07-06T06:55:17;101063.09;;;17.18;56.30
71465;BME280;59274;49.874;9.154;2022-07-06T06:57:43;101068.19;;;17.05;57.00
71465;BME280;59274;49.874;9.154;2022-07-06T07:00:09;101070.91;;;17.23;56.65
71465;BME280;59274;49.874;9.154;2022-07-06T07:02:35;101066.19;;;17.27;57.22
71465;BME280;59274;49.874;9.154;2022-07-06T07:05:00;101070.47;;;17.35;56.76
71465;BME280;59274;49.874;9.154;2022-07-06T07:07:26;101063.41;;;17.38;56.99
71465;BME280;59274;49.874;9.154;2022-07-06T07:09:51;101065.75;;;17.36;55.52
71465;BME280;59274;49.874;9.154;2022-07-06T07:12:17;101071.56;;;17.55;55.85
71465;BME280;59274;49.874;9.154;2022-07-06T07:14:43;101074.66;;;17.75;55.55
71465;BME280;59274;49.874;9.154;2022-07-06T07:17:09;101069.50;;;17.84;54.22
71465;BME280;59274;49.874;9.154;2022-07-06T07:19:35;101068.28;;;17.92;54.87
71465;BME280;59274;49.874;9.154;2022-07-06T07:22:01;101069.78;;;18.04;53.89
71465;BME280;59274;49.874;9.154;2022-07-06T07:24:26;101058.78;;;18.04;54.48
71465;BME280;59274;49.874;9.154;2022-07-06T07:26:52;101068.59;;;18.05;55.01
71465;BME280;59274;49.874;9.154;2022-07-06T07:29:17;101063.50;;;18.00;54.35
71465;BME280;59274;49.874;9.154;2022-07-06T07:31:43;101071.75;;;18.00;54.43
71465;BME280;59274;49.874;9.154;2022-07-06T07:34:08;101075.72;;;17.95;54.27
71465;BME280;59274;49.874;9.154;2022-07-06T07:36:34;101079.22;;;17.99;54.02
71465;BME280;59274;49.874;9.154;2022-07-06T07:39:00;101075.28;;;18.04;54.55
71465;BME280;59274;49.874;9.154;2022-07-06T07:41:25;101072.91;;;18.06;53.91
71465;BME280;59274;49.874;9.154;2022-07-06T07:43:51;101070.47;;;18.19;53.24
71465;BME280;59274;49.874;9.154;2022-07-06T07:46:16;101063.97;;;18.47;53.08
71465;BME280;59274;49.874;9.154;2022-07-06T07:48:42;101081.88;;;18.72;52.07
71465;BME280;59274;49.874;9.154;2022-07-06T07:51:07;101080.75;;;18.63;51.40
71465;BME280;59274;49.874;9.154;2022-07-06T07:53:33;101074.50;;;18.55;51.77
71465;BME280;59274;49.874;9.154;2022-07-06T07:55:58;101079.63;;;18.57;51.30
71465;BME280;59274;49.874;9.154;2022-07-06T07:58:26;101080.28;;;18.75;50.97
71465;BME280;59274;49.874;9.154;2022-07-06T08:00:52;101081.47;;;18.70;51.08
71465;BME280;59274;49.874;9.154;2022-07-06T08:03:18;101081.66;;;18.94;50.53
71465;BME280;59274;49.874;9.154;2022-07-06T08:05:43;101078.69;;;19.15;50.36
71465;BME280;59274;49.874;9.154;2022-07-06T08:08:09;101083.66;;;19.27;49.54
71465;BME280;59274;49.874;9.154;2022-07-06T08:10:34;101087.34;;;19.13;48.88
71465;BME280;59274;49.874;9.154;2022-07-06T08:13:00;101082.41;;;18.98;50.10
71465;BME280;59274;49.874;9.154;2022-07-06T08:15:25;101078.19;;;18.86;50.18
71465;BME280;59274;49.874;9.154;2022-07-06T08:17:51;101080.16;;;18.89;50.56
71465;BME280;59274;49.874;9.154;2022-07-06T08:20:16;101078.09;;;18.97;49.52
71465;BME280;59274;49.874;9.154;2022-07-06T08:22:42;101076.56;;;18.92;50.12
71465;BME280;59274;49.874;9.154;2022-07-06T08:25:08;101068.22;;;19.03;50.42
71465;BME280;59274;49.874;9.154;2022-07-06T08:27:34;101071.16;;;19.19;49.49
71465;BME280;59274;49.874;9.154;2022-07-06T08:30:00;101084.59;;;19.13;48.86
71465;BME280;59274;49.874;9.154;2022-07-06T08:32:26;101080.47;;;19.32;47.90
71465;BME280;59274;49.874;9.154;2022-07-06T08:34:52;101073.66;;;19.06;48.92
71465;BME280;59274;49.874;9.154;2022-07-06T08:37:18;101081.03;;;19.16;49.56
71465;BME280;59274;49.874;9.154;2022-07-06T08:39:44;101082.88;;;19.27;48.82
71465;BME280;59274;49.874;9.154;2022-07-06T08:42:11;101078.78;;;19.42;47.94
71465;BME280;59274;49.874;9.154;2022-07-06T08:44:37;101083.28;;;19.63;46.79
71465;BME280;59274;49.874;9.154;2022-07-06T08:47:05;101092.56;;;19.42;48.16
71465;BME280;59274;49.874;9.154;2022-07-06T08:49:32;101084.53;;;19.54;48.61
71465;BME280;59274;49.874;9.154;2022-07-06T08:51:59;101084.22;;;19.49;48.30
71465;BME280;59274;49.874;9.154;2022-07-06T08:54:26;101093.00;;;19.71;47.47
71465;BME280;59274;49.874;9.154;2022-07-06T08:56:52;101095.34;;;20.03;47.11
71465;BME280;59274;49.874;9.154;2022-07-06T08:59:18;101091.47;;;19.97;46.42
71465;BME280;59274;49.874;9.154;2022-07-06T09:01:46;101095.25;;;20.10;47.12
71465;BME280;59274;49.874;9.154;2022-07-06T09:04:15;101107.69;;;20.21;46.91
71465;BME280;59274;49.874;9.154;2022-07-06T09:06:42;101102.47;;;20.27;46.64
71465;BME280;59274;49.874;9.154;2022-07-06T09:09:13;101106.34;;;20.33;45.74
71465;BME280;59274;49.874;9.154;2022-07-06T09:11:42;101106.75;;;20.31;45.36
71465;BME280;59274;49.874;9.154;2022-07-06T09:14:09;101102.00;;;20.32;46.05
71465;BME280;59274;49.874;9.154;2022-07-06T09:16:34;101104.31;;;20.37;45.59
71465;BME280;59274;49.874;9.154;2022-07-06T09:19:01;101098.94;;;20.00;46.32
71465;BME280;59274;49.874;9.154;2022-07-06T09:21:31;101102.16;;;20.21;46.47
71465;BME280;59274;49.874;9.154;2022-07-06T09:23:59;101105.03;;;20.41;45.48
71465;BME280;59274;49.874;9.154;2022-07-06T09:26:25;101095.28;;;20.60;45.46
71465;BME280;59274;49.874;9.154;2022-07-06T09:28:51;101103.25;;;20.78;43.49
71465;BME280;59274;49.874;9.154;2022-07-06T09:31:17;101095.63;;;20.62;44.57
71465;BME280;59274;49.874;9.154;2022-07-06T09:34:02;101100.16;;;20.52;44.49
71465;BME280;59274;49.874;9.154;2022-07-06T09:39:23;101097.47;;;20.18;46.07
71465;BME280;59274;49.874;9.154;2022-07-06T09:41:53;101097.06;;;19.93;46.77
71465;BME280;59274;49.874;9.154;2022-07-06T09:46:47;101111.72;;;20.44;46.10
71465;BME280;59274;49.874;9.154;2022-07-06T09:49:17;101110.75;;;20.27;44.75
71465;BME280;59274;49.874;9.154;2022-07-06T09:51:44;101101.28;;;20.78;44.96
71465;BME280;59274;49.874;9.154;2022-07-06T09:54:09;101100.91;;;21.42;43.54
71465;BME280;59274;49.874;9.154;2022-07-06T09:56:37;101103.50;;;21.10;44.27
71465;BME280;59274;49.874;9.154;2022-07-06T09:59:10;101105.16;;;21.04;44.45
71465;BME280;59274;49.874;9.154;2022-07-06T10:01:40;101102.06;;;20.79;44.10
71465;BME280;59274;49.874;9.154;2022-07-06T10:04:06;101106.00;;;20.54;44.19
71465;BME280;59274;49.874;9.154;2022-07-06T10:06:32;101101.47;;;20.44;44.75
71465;BME280;59274;49.874;9.154;2022-07-06T10:08:59;101097.16;;;20.66;44.29
71465;BME280;59274;49.874;9.154;2022-07-06T10:11:25;101105.25;;;20.77;44.03
71465;BME280;59274;49.874;9.154;2022-07-06T10:13:54;101102.44;;;20.57;43.49
71465;BME280;59274;49.874;9.154;2022-07-06T10:16:22;101093.28;;;20.37;44.71
71465;BME280;59274;49.874;9.154;2022-07-06T10:18:48;101101.78;;;20.46;44.42
71465;BME280;59274;49.874;9.154;2022-07-06T10:21:16;101091.31;;;20.61;43.11
71465;BME280;59274;49.874;9.154;2022-07-06T10:23:43;101094.50;;;20.59;42.97
71465;BME280;59274;49.874;9.154;2022-07-06T10:26:09;101092.53;;;20.60;42.64
71465;BME280;59274;49.874;9.154;2022-07-06T10:28:35;101081.38;;;21.10;41.08
71465;BME280;59274;49.874;9.154;2022-07-06T10:31:02;101082.75;;;21.41;42.32
71465;BME280;59274;49.874;9.154;2022-07-06T10:33:27;101084.25;;;21.46;42.28
71465;BME280;59274;49.874;9.154;2022-07-06T10:35:54;101089.94;;;20.96;42.09
71465;BME280;59274;49.874;9.154;2022-07-06T10:38:30;101086.81;;;21.17;42.66
71465;BME280;59274;49.874;9.154;2022-07-06T10:41:03;101084.78;;;20.75;43.27
71465;BME280;59274;49.874;9.154;2022-07-06T10:43:35;101082.97;;;20.64;42.72
71465;BME280;59274;49.874;9.154;2022-07-06T10:46:12;101080.47;;;20.74;41.77
71465;BME280;59274;49.874;9.154;2022-07-06T10:48:42;101072.13;;;20.97;42.01
71465;BME280;59274;49.874;9.154;2022-07-06T10:51:08;101072.47;;;21.02;40.42
71465;BME280;59274;49.874;9.154;2022-07-06T10:53:37;101075.50;;;21.08;39.83
71465;BME280;59274;49.874;9.154;2022-07-06T10:56:07;101073.66;;;21.01;40.29
71465;BME280;59274;49.874;9.154;2022-07-06T11:01:13;101072.22;;;21.36;39.42
71465;BME280;59274;49.874;9.154;2022-07-06T11:06:13;101058.25;;;21.99;40.52
71465;BME280;59274;49.874;9.154;2022-07-06T11:11:18;101053.50;;;22.48;38.84
71465;BME280;59274;49.874;9.154;2022-07-06T11:16:23;101073.66;;;21.61;39.88
71465;BME280;59274;49.874;9.154;2022-07-06T11:21:35;101068.19;;;21.97;40.17
71465;BME280;59274;49.874;9.154;2022-07-06T11:24:03;101072.59;;;22.10;40.39
71465;BME280;59274;49.874;9.154;2022-07-06T11:26:30;101063.25;;;22.69;38.88
71465;BME280;59274;49.874;9.154;2022-07-06T11:28:58;101070.19;;;22.61;39.52
71465;BME280;59274;49.874;9.154;2022-07-06T11:31:24;101060.25;;;22.31;39.45
71465;BME280;59274;49.874;9.154;2022-07-06T11:33:49;101056.31;;;21.96;39.63
71465;BME280;59274;49.874;9.154;2022-07-06T11:36:20;101055.38;;;22.03;39.63
71465;BME280;59274;49.874;9.154;2022-07-06T11:38:48;101063.19;;;22.08;38.38
71465;BME280;59274;49.874;9.154;2022-07-06T11:41:15;101048.25;;;21.85;39.45
71465;BME280;59274;49.874;9.154;2022-07-06T11:43:42;101049.06;;;22.67;35.57
71465;BME280;59274;49.874;9.154;2022-07-06T11:46:25;101046.03;;;22.94;36.05
71465;BME280;59274;49.874;9.154;2022-07-06T11:48:54;101053.22;;;23.74;35.94
71465;BME280;59274;49.874;9.154;2022-07-06T11:51:22;101050.16;;;23.43;37.72
71465;BME280;59274;49.874;9.154;2022-07-06T11:53:51;101047.63;;;22.46;38.83
71465;BME280;59274;49.874;9.154;2022-07-06T11:56:17;101046.91;;;22.10;39.16
71465;BME280;59274;49.874;9.154;2022-07-06T11:58:51;101043.09;;;22.52;38.09
71465;BME280;59274;49.874;9.154;2022-07-06T12:01:17;101046.06;;;22.29;38.05
71465;BME280;59274;49.874;9.154;2022-07-06T12:03:44;101040.19;;;22.43;37.19
71465;BME280;59274;49.874;9.154;2022-07-06T12:06:21;101048.31;;;22.02;38.51
71465;BME280;59274;49.874;9.154;2022-07-06T12:08:55;101046.16;;;22.25;36.59
71465;BME280;59274;49.874;9.154;2022-07-06T12:13:49;101033.97;;;22.23;34.90
71465;BME280;59274;49.874;9.154;2022-07-06T12:16:15;101027.84;;;22.93;32.63
71465;BME280;59274;49.874;9.154;2022-07-06T12:18:46;101030.16;;;23.77;33.27
71465;BME280;59274;49.874;9.154;2022-07-06T12:21:18;101019.91;;;23.08;34.10
71465;BME280;59274;49.874;9.154;2022-07-06T12:23:49;101022.34;;;23.60;33.14
71465;BME280;59274;49.874;9.154;2022-07-06T12:26:17;101024.38;;;23.72;32.32
71465;BME280;59274;49.874;9.154;2022-07-06T12:28:44;101023.16;;;23.19;32.76
71465;BME280;59274;49.874;9.154;2022-07-06T12:31:10;101021.50;;;23.75;31.25
71465;BME280;59274;49.874;9.154;2022-07-06T12:33:36;101017.78;;;24.42;30.82
71465;BME280;59274;49.874;9.154;2022-07-06T12:36:12;101010.47;;;25.04;29.90
71465;BME280;59274;49.874;9.154;2022-07-06T12:38:44;101010.69;;;25.62;28.06
71465;BME280;59274;49.874;9.154;2022-07-06T12:41:10;101012.72;;;25.71;27.96
71465;BME280;59274;49.874;9.154;2022-07-06T12:43:40;101016.78;;;25.05;28.36
71465;BME280;59274;49.874;9.154;2022-07-06T12:48:55;101002.75;;;26.01;27.25
71465;BME280;59274;49.874;9.154;2022-07-06T12:51:21;100999.03;;;25.95;27.30
71465;BME280;59274;49.874;9.154;2022-07-06T12:53:47;100995.75;;;25.87;27.36
71465;BME280;59274;49.874;9.154;2022-07-06T12:56:15;101008.31;;;25.92;26.96
71465;BME280;59274;49.874;9.154;2022-07-06T12:58:58;100997.47;;;26.79;26.85
71465;BME280;59274;49.874;9.154;2022-07-06T13:01:23;100999.16;;;26.59;26.05
71465;BME280;59274;49.874;9.154;2022-07-06T13:03:56;101008.94;;;26.72;26.21
71465;BME280;59274;49.874;9.154;2022-07-06T13:06:33;100992.22;;;26.63;26.27
71465;BME280;59274;49.874;9.154;2022-07-06T13:08:59;101001.88;;;26.13;25.66
71465;BME280;59274;49.874;9.154;2022-07-06T13:11:24;100994.69;;;26.88;25.12